createdAt,value
2023-05-08T00:12:25.734Z,0.04
2023-05-08T00:27:25.840Z,0.08
2023-05-08T00:42:26.073Z,0.1
2023-05-08T00:57:25.399Z,0.03
2023-05-08T01:12:25.505Z,0.04
2023-05-08T01:27:25.696Z,0.14
2023-05-08T01:42:25.859Z,0.08
2023-05-08T01:57:25.977Z,0.19
2023-05-08T02:12:25.196Z,0.21
2023-05-08T02:27:25.282Z,0.11
2023-05-08T02:42:25.516Z,0.1
2023-05-08T02:57:25.691Z,0.01
2023-05-08T03:12:25.946Z,2.75
2023-05-08T03:27:25.546Z,5.34
2023-05-08T03:42:25.628Z,0.13
2023-05-08T03:57:25.770Z,0.29
2023-05-08T04:12:25.211Z,1.64
2023-05-08T04:27:25.452Z,0.37
2023-05-08T04:42:25.903Z,2.61
2023-05-08T04:57:25.340Z,0.3
2023-05-08T05:12:25.609Z,0.53
2023-05-08T05:27:25.944Z,2.57
2023-05-08T05:42:25.279Z,2.51
2023-05-08T05:57:25.467Z,1.26
2023-05-08T06:12:25.649Z,4.79
2023-05-08T06:27:25.763Z,2.8
2023-05-08T06:42:25.788Z,0.96
2023-05-08T06:57:25.674Z,2.39
2023-05-08T07:12:25.577Z,0.92
2023-05-08T07:27:25.365Z,0.73
2023-05-08T07:42:25.231Z,0.2
2023-05-08T07:57:25.859Z,1.7
2023-05-08T08:12:25.611Z,3.83
2023-05-08T08:27:25.214Z,0.61
2023-05-08T08:42:25.569Z,0.26
2023-05-08T08:57:25.822Z,0.6
2023-05-08T09:12:25.134Z,0.13
2023-05-08T09:27:25.441Z,0.3
2023-05-08T09:42:25.807Z,0.82
2023-05-08T09:57:25.401Z,0.77
2023-05-08T10:12:25.794Z,0.96
2023-05-08T10:27:25.844Z,0.24
2023-05-08T10:42:25.867Z,0.53
2023-05-08T10:57:25.993Z,0.48
2023-05-08T11:12:25.223Z,2.1
2023-05-08T11:27:25.713Z,1.07
2023-05-08T11:42:26.026Z,1.55
2023-05-08T11:57:25.412Z,0.31
2023-05-08T12:12:25.766Z,4.09
2023-05-08T12:27:25.298Z,0.97
2023-05-08T12:42:25.658Z,1.94
2023-05-08T12:57:25.799Z,31.87
2023-05-08T13:27:25.885Z,0.6
2023-05-08T13:42:26.097Z,0.55
2023-05-08T13:57:25.848Z,0.86
2023-05-08T14:12:25.978Z,1.23
2023-05-08T14:27:25.369Z,2.11
2023-05-08T14:42:25.963Z,10.67
2023-05-08T14:57:25.448Z,9.15
2023-05-08T15:12:25.188Z,15.54
2023-05-08T15:27:25.327Z,8.43
2023-05-08T15:42:25.692Z,4.96
2023-05-08T15:57:25.286Z,5.46
2023-05-08T16:12:25.698Z,5.95
2023-05-08T16:27:25.320Z,3.17
2023-05-08T16:42:25.896Z,3.19
2023-05-08T16:57:25.819Z,5.36
2023-05-08T17:12:25.681Z,8.4
2023-05-08T17:27:25.614Z,9.12
2023-05-08T17:42:25.984Z,22.2
2023-05-08T17:57:25.920Z,18.46
2023-05-08T18:12:25.801Z,22.13
2023-05-08T18:27:25.592Z,18.92
2023-05-08T18:42:25.589Z,17.04
2023-05-08T18:57:25.650Z,12.91
2023-05-08T19:12:25.321Z,15.74
2023-05-08T19:27:25.822Z,14.93
2023-05-08T19:42:25.938Z,14.92
2023-05-08T19:57:25.617Z,11.36
2023-05-08T20:12:26.006Z,9.72
2023-05-08T20:27:25.247Z,9.11
2023-05-08T20:42:26.028Z,9.69
2023-05-08T20:57:26.009Z,7.69
2023-05-08T21:12:26.162Z,3.17
2023-05-08T21:27:25.926Z,7.67
2023-05-08T21:42:25.884Z,7.97
2023-05-08T21:57:25.828Z,13.13
2023-05-08T22:12:25.297Z,10.48
2023-05-08T22:27:25.664Z,13.06
2023-05-08T22:42:25.548Z,14.36
2023-05-08T22:57:25.412Z,7.38
2023-05-08T23:12:25.864Z,8.95
2023-05-08T23:27:25.908Z,4.29
2023-05-08T23:42:26.273Z,2.53
2023-05-08T23:57:25.843Z,3.46
